Estación Meteorológica Peña el Pijo (Robertgarden) [ 09/22/18 22:39:31 CEST ]

Fecha Hora Presion(HPa) Temp (°C) Humedad % Rocio (°C) Viento ( m/s) Direccion Lluvia 1Hora(mm) Lluvia 24H(mm) LLuvia Total(mm)
2018-Jan-20 01:01:58 1013.400 0.9 81 -2.0         62.16
2018-Jan-20 02:03:12 1012.900 -0.2 82 -2.9         62.16
2018-Jan-20 03:01:20 1013.300 0.4 83 -2.2         62.16
2018-Jan-20 04:01:32 1013.100 1.3 84 -1.2         62.16
2018-Jan-20 05:01:34 1013.100 0.5 84 -1.9         62.16
2018-Jan-20 06:01:42 1013.500 -0.2 84 -2.6         62.16
2018-Jan-20 07:01:43 1013.500 -0.1 85 -2.3         62.16
2018-Jan-20 08:01:36 1014.000 1.4 85 -0.9         62.16
2018-Jan-20 09:01:28 1014.800 0.9 85 -1.4         62.16
2018-Jan-20 10:01:36 1015.300 5.0 86 2.8         62.16
2018-Jan-20 11:01:48 1016.000 9.6 67 3.8         62.16
2018-Jan-20 12:01:50 1015.500 12.4 48 1.6         62.16
2018-Jan-20 13:01:57 1015.300 13.4 38 -0.7 0.4 SSW     62.16
2018-Jan-20 14:01:57 1014.300 15.4 35 -0.1 2.3 W     62.16
2018-Jan-20 15:02:09 1014.100 15.1 33 -1.1         62.16
2018-Jan-20 16:01:45 1013.900 13.6 36 -1.3         62.16
2018-Jan-20 17:01:39 1014.000 13.1 37 -1.4         62.16
2018-Jan-20 18:01:39 1014.200 11.1 40 -2.0         62.16
2018-Jan-20 19:01:48 1014.800 9.1 44 -2.6         62.16
2018-Jan-20 20:01:46 1015.100 7.6 46 -3.4 1.9 NW     62.16
2018-Jan-20 21:01:41 1015.600 8.1 48 -2.3         62.16
2018-Jan-20 22:01:49 1015.700 8.9 47 -1.9 2.9 NNW     62.16
2018-Jan-20 23:01:47 1015.800 7.8 49 -2.3         62.16

Temperatura Máxima:15°    Temperatura Mínima:
Presión Máxima:1016.000 Hpa    Presión Mínima:1012.900 Hpa


Volver